Time;durP1;ratioP1;P1;durP2;ratioP2;P2;SDS_P1;SDS_P2;PMS_P1;PMS_P2;Temp;Humidity;BMP_temperature;BMP_pressure;BME280_temperature;BME280_humidity;BME280_pressure;Samples;Min_cycle;Max_cycle;Signal;HPM_P1;HPM_P2
2023/10/12 00:00:29;;;;;;;10.77;3.90;;;;;;;14.31;67.12;101716.38;5049631;28;20032;-78
2023/10/12 00:02:58;;;;;;;10.32;4.28;;;;;;;14.29;67.35;101710.19;5050094;28;20029;-77
2023/10/12 00:05:27;;;;;;;10.05;4.40;;;;;;;14.34;66.83;101717.00;4998177;28;20044;-79
2023/10/12 00:07:56;;;;;;;10.00;3.92;;;;;;;14.27;67.29;101717.59;5049658;28;20025;-79
2023/10/12 00:10:23;;;;;;;7.80;4.07;;;;;;;14.26;67.29;101711.31;5049656;28;20112;-79
2023/10/12 00:12:52;;;;;;;16.40;4.45;;;;;;;14.24;67.20;101698.88;5049972;28;20052;-79
2023/10/12 00:18:08;;;;;;;12.63;4.50;;;;;;;14.21;67.48;101712.66;5049859;28;20036;-79
2023/10/12 00:20:37;;;;;;;8.57;3.78;;;;;;;14.19;67.45;101710.94;5049663;28;20086;-79
2023/10/12 00:23:10;;;;;;;10.20;3.40;;;;;;;14.00;67.64;101675.50;5049918;28;20082;-78
2023/10/12 00:25:47;;;;;;;14.35;4.78;;;;;;;14.21;67.63;101702.69;5049771;28;20043;-78
2023/10/12 00:28:18;;;;;;;11.32;4.85;;;;;;;14.23;67.70;101702.56;5050087;28;20027;-78
2023/10/12 00:30:46;;;;;;;16.60;5.32;;;;;;;14.07;67.43;101667.75;4998374;28;20045;-79
2023/10/12 00:33:12;;;;;;;13.32;6.00;;;;;;;14.24;67.28;101683.50;5031711;28;20493;-79
2023/10/12 00:35:37;;;;;;;15.02;7.03;;;;;;;14.29;67.41;101693.97;5049322;28;20033;-78
2023/10/12 00:38:17;;;;;;;19.00;6.85;;;;;;;14.24;67.37;101690.75;5049335;28;20037;-79
2023/10/12 00:40:57;;;;;;;15.52;5.82;;;;;;;14.17;67.45;101685.84;5049756;28;20037;-78
2023/10/12 00:43:31;;;;;;;25.70;5.70;;;;;;;14.17;67.55;101666.91;5049475;28;20029;-79
2023/10/12 00:45:58;;;;;;;18.80;5.70;;;;;;;14.23;67.32;101689.03;5049527;28;20036;-79
2023/10/12 00:48:29;;;;;;;17.10;5.80;;;;;;;14.08;67.36;101664.06;5049204;28;20563;-79
2023/10/12 00:50:56;;;;;;;9.95;5.70;;;;;;;14.12;67.11;101677.25;5049492;28;20052;-79
2023/10/12 00:53:23;;;;;;;11.98;6.55;;;;;;;14.11;67.61;101674.66;5049498;28;20021;-79
2023/10/12 00:55:50;;;;;;;14.88;5.50;;;;;;;14.05;67.33;101667.00;5049126;28;20051;-78
2023/10/12 00:58:17;;;;;;;28.63;6.95;;;;;;;14.09;67.70;101682.91;5049330;28;20493;-79
2023/10/12 01:00:50;;;;;;;14.65;7.45;;;;;;;14.14;67.33;101674.41;5049043;28;20029;-79
2023/10/12 01:03:35;;;;;;;27.52;8.05;;;;;;;14.11;67.31;101664.69;5049727;28;20507;-78
2023/10/12 01:08:34;;;;;;;15.52;6.65;;;;;;;13.95;67.25;101652.50;5053450;28;20025;-78
2023/10/12 01:11:05;;;;;;;12.38;6.05;;;;;;;13.98;67.00;101657.66;5053088;28;20580;-78
2023/10/12 01:13:33;;;;;;;18.08;6.68;;;;;;;14.03;67.53;101667.16;5053234;28;20378;-78
2023/10/12 01:16:04;;;;;;;25.52;7.25;;;;;;;13.99;67.31;101671.06;5053072;28;20029;-78
2023/10/12 01:18:29;;;;;;;25.17;5.72;;;;;;;13.79;67.74;101642.00;5052973;28;20098;-78
2023/10/12 01:20:54;;;;;;;22.40;6.93;;;;;;;13.99;68.08;101676.47;5053013;28;20096;-79
2023/10/12 01:23:20;;;;;;;11.23;5.35;;;;;;;13.87;68.19;101650.41;5053062;28;20111;-78
2023/10/12 01:25:48;;;;;;;13.68;5.22;;;;;;;13.98;68.11;101663.94;5052292;28;20052;-78
2023/10/12 01:28:15;;;;;;;11.77;4.72;;;;;;;14.00;68.22;101677.34;5052845;28;20104;-78
2023/10/12 01:30:40;;;;;;;11.10;4.35;;;;;;;13.80;68.09;101646.44;5052096;28;20049;-78
2023/10/12 01:33:06;;;;;;;13.50;5.72;;;;;;;13.95;68.53;101675.00;5052752;28;20036;-78
2023/10/12 01:35:39;;;;;;;8.98;4.03;;;;;;;13.99;68.27;101671.06;5052562;28;20039;-78
2023/10/12 01:38:05;;;;;;;10.52;4.70;;;;;;;13.90;68.41;101668.22;5052364;28;20025;-78
2023/10/12 01:43:15;;;;;;;10.38;4.65;;;;;;;13.98;68.75;101676.59;5052440;28;20053;-78
2023/10/12 01:45:41;;;;;;;13.10;4.43;;;;;;;13.98;69.00;101674.75;5052896;28;20033;-77
2023/10/12 01:48:08;;;;;;;15.05;4.95;;;;;;;13.98;68.81;101680.16;5052182;28;20570;-80
2023/10/12 01:50:39;;;;;;;10.93;4.68;;;;;;;14.06;68.55;101674.16;5033543;28;20064;-79
2023/10/12 01:53:12;;;;;;;10.27;3.85;;;;;;;13.99;68.37;101654.84;5052107;28;20048;-77
2023/10/12 01:55:37;;;;;;;7.70;4.00;;;;;;;14.09;68.38;101672.06;5051954;28;20482;-79
2023/10/12 01:58:04;;;;;;;10.82;4.30;;;;;;;14.03;68.52;101664.44;5051873;28;20029;-79
2023/10/12 02:00:41;;;;;;;9.50;3.55;;;;;;;13.98;68.54;101663.94;5052090;28;20554;-78
2023/10/12 02:03:18;;;;;;;9.85;4.03;;;;;;;13.95;68.99;101668.72;5051552;28;20024;-79
2023/10/12 02:05:47;;;;;;;13.85;3.53;;;;;;;13.90;69.05;101670.94;5032866;28;20041;-78
2023/10/12 02:08:17;;;;;;;6.95;3.65;;;;;;;13.82;69.31;101667.97;5052070;28;20075;-78
2023/10/12 02:10:54;;;;;;;14.80;3.97;;;;;;;13.84;69.28;101677.69;5051995;28;20670;-78
2023/10/12 02:13:21;;;;;;;10.70;4.57;;;;;;;13.81;69.49;101667.13;5051930;28;20039;-78
2023/10/12 02:15:50;;;;;;;9.32;3.55;;;;;;;13.69;69.37;101646.44;5051858;28;20039;-78
2023/10/12 02:18:16;;;;;;;11.60;3.58;;;;;;;13.71;69.36;101649.88;5051503;28;20741;-78
2023/10/12 02:20:58;;;;;;;9.27;3.45;;;;;;;13.76;69.39;101663.88;5051669;28;20040;-78
2023/10/12 02:23:32;;;;;;;15.85;3.63;;;;;;;13.63;69.12;101646.94;5033706;28;20021;-78
2023/10/12 02:25:57;;;;;;;17.60;3.53;;;;;;;13.74;69.43;101665.88;5051653;28;20033;-79
2023/10/12 02:28:23;;;;;;;9.35;3.70;;;;;;;13.79;69.18;101671.75;5051794;28;20765;-79
2023/10/12 02:30:55;;;;;;;18.38;4.60;;;;;;;13.74;69.38;101646.94;5051127;28;20485;-78
2023/10/12 02:33:27;;;;;;;15.38;4.25;;;;;;;13.81;69.35;101656.31;5051806;28;20087;-79
2023/10/12 02:35:54;;;;;;;11.25;4.53;;;;;;;13.78;69.30;101661.94;5051562;28;20040;-79
2023/10/12 02:38:21;;;;;;;10.65;5.00;;;;;;;13.69;69.31;101651.84;5051406;28;20021;-78
2023/10/12 02:40:49;;;;;;;10.50;5.07;;;;;;;13.64;69.34;101670.25;5051139;28;20040;-79
2023/10/12 02:43:15;;;;;;;20.35;4.70;;;;;;;13.61;69.52;101662.38;5051744;28;20029;-79
2023/10/12 02:45:42;;;;;;;18.65;6.18;;;;;;;13.62;69.52;101664.13;5050395;28;20064;-79
2023/10/12 02:48:22;;;;;;;23.73;5.20;;;;;;;13.45;69.63;101643.81;5051165;28;20029;-80
2023/10/12 02:50:57;;;;;;;13.05;4.55;;;;;;;13.54;69.46;101659.31;5049440;28;20029;-75
2023/10/12 02:53:28;;;;;;;21.42;7.75;;;;;;;13.58;70.13;101665.31;5050135;28;20025;-75
2023/10/12 02:55:58;;;;;;;21.95;5.35;;;;;;;13.53;69.78;101662.13;5050474;28;20033;-77
2023/10/12 02:58:24;;;;;;;12.95;5.30;;;;;;;13.43;69.83;101661.09;5051086;28;20025;-77
2023/10/12 03:00:55;;;;;;;17.25;4.53;;;;;;;13.51;69.83;101664.09;5048930;28;20455;-77
2023/10/12 03:06:01;;;;;;;17.60;4.88;;;;;;;13.50;69.29;101657.81;5050848;28;20123;-78
2023/10/12 03:08:45;;;;;;;16.15;4.63;;;;;;;13.48;69.22;101650.81;5051890;28;20059;-79
2023/10/12 03:11:12;;;;;;;21.55;4.35;;;;;;;13.38;69.13;101650.66;5051284;28;20025;-75
2023/10/12 03:13:54;;;;;;;20.70;4.22;;;;;;;13.40;69.19;101661.34;5051432;28;20025;-74
2023/10/12 03:18:45;;;;;;;20.30;6.00;;;;;;;13.27;69.50;101644.38;5051238;28;20083;-75
2023/10/12 03:21:14;;;;;;;24.17;6.38;;;;;;;13.27;70.01;101655.16;5033117;28;20052;-75
2023/10/12 03:23:46;;;;;;;14.13;4.75;;;;;;;13.25;69.70;101649.00;5050610;28;20029;-75
2023/10/12 03:26:24;;;;;;;20.15;4.80;;;;;;;13.16;70.04;101652.41;5050138;28;20627;-75
2023/10/12 03:28:50;;;;;;;13.02;5.65;;;;;;;13.19;70.46;101657.56;5050558;28;20036;-74
2023/10/12 03:31:23;;;;;;;23.88;7.53;;;;;;;13.16;70.62;101660.50;5049521;28;20083;-74
2023/10/12 03:33:56;;;;;;;19.80;5.60;;;;;;;13.15;70.40;101656.09;5050234;28;20551;-75
2023/10/12 03:36:31;;;;;;;27.80;6.03;;;;;;;12.94;70.14;101621.59;5050570;28;20033;-77
2023/10/12 03:49:57;;;;;;;21.95;5.15;;;;;;;13.13;70.95;101652.63;5050114;28;20040;-73
2023/10/12 03:52:29;;;;;;;32.50;5.80;;;;;;;13.12;70.97;101645.53;5050450;28;20112;-75
2023/10/12 03:55:16;;;;;;;38.25;6.40;;;;;;;12.99;70.91;101630.22;5050206;28;20029;-75
2023/10/12 03:58:00;;;;;;;30.40;7.20;;;;;;;13.05;70.93;101645.09;5049832;28;20028;-75
2023/10/12 04:00:32;;;;;;;72.03;11.85;;;;;;;13.06;71.62;101650.38;5050222;28;20094;-75
2023/10/12 04:02:58;;;;;;;59.05;12.02;;;;;;;13.01;71.82;101649.88;5050268;28;20049;-75
2023/10/12 04:08:12;;;;;;;22.25;5.35;;;;;;;12.86;72.19;101651.00;5049539;28;20032;-75
2023/10/12 04:21:33;;;;;;;55.47;10.38;;;;;;;13.07;72.00;101638.59;4968456;28;20577;-75
2023/10/12 04:28:59;;;;;;;35.38;7.90;;;;;;;13.37;71.74;101657.03;4968171;28;20031;-75
2023/10/12 04:41:38;;;;;;;58.85;9.65;;;;;;;13.37;71.97;101642.66;4949955;28;20031;-75
2023/10/12 04:47:06;;;;;;;44.83;10.02;;;;;;;13.39;71.98;101646.13;4953319;29;20042;-75
2023/10/12 04:54:49;;;;;;;78.43;12.32;;;;;;;13.61;71.09;101649.72;4953149;29;20499;-76
2023/10/12 04:57:15;;;;;;;65.35;12.43;;;;;;;13.67;71.19;101651.09;4952553;29;20034;-74
2023/10/12 05:05:14;;;;;;;89.25;13.40;;;;;;;13.42;71.10;101643.19;5052462;28;20039;-75
2023/10/12 05:09:52;;;;;;;88.63;15.55;;;;;;;13.48;71.26;101642.72;5052269;28;20014;-75
2023/10/12 05:12:25;;;;;;;63.42;15.57;;;;;;;13.70;71.17;101641.91;5052296;28;20055;-75
2023/10/12 05:15:00;;;;;;;97.22;16.25;;;;;;;13.77;71.03;101659.34;5052462;28;20044;-75
2023/10/12 05:17:27;;;;;;;111.72;22.15;;;;;;;13.83;70.68;101654.31;5052464;28;20116;-76
2023/10/12 05:19:53;;;;;;;115.65;19.95;;;;;;;13.89;70.67;101651.13;5051949;28;20067;-75
2023/10/12 05:22:22;;;;;;;120.28;19.27;;;;;;;13.95;70.59;101653.34;5052390;28;20029;-76
2023/10/12 05:24:48;;;;;;;154.30;28.10;;;;;;;14.01;70.52;101646.59;5052367;28;20017;-75
2023/10/12 05:27:23;;;;;;;100.85;18.20;;;;;;;14.01;70.48;101650.16;5052347;28;20098;-75
2023/10/12 05:29:52;;;;;;;216.38;26.88;;;;;;;14.16;70.41;101659.75;4996086;28;20049;-75
2023/10/12 05:32:36;;;;;;;149.27;25.45;;;;;;;14.29;70.36;101658.78;5031977;28;20029;-76
2023/10/12 05:35:05;;;;;;;126.85;20.63;;;;;;;14.28;70.29;101654.38;5032283;28;20029;-76
2023/10/12 05:37:38;;;;;;;108.07;20.02;;;;;;;14.25;70.31;101651.91;5031401;28;20060;-74
2023/10/12 05:40:13;;;;;;;82.05;21.63;;;;;;;14.32;69.83;101656.69;5031782;28;20052;-74
2023/10/12 05:42:39;;;;;;;75.90;19.48;;;;;;;14.34;69.60;101659.31;5031468;28;20493;-75
2023/10/12 05:45:22;;;;;;;58.97;20.25;;;;;;;14.44;69.05;101660.28;5032172;28;20107;-74
2023/10/12 05:47:53;;;;;;;65.05;20.42;;;;;;;14.35;68.79;101661.88;5031952;28;20554;-76
2023/10/12 05:50:23;;;;;;;82.70;22.20;;;;;;;14.30;68.59;101664.06;5031880;28;20052;-76
2023/10/12 05:52:52;;;;;;;59.30;21.88;;;;;;;14.33;68.73;101660.28;5030487;28;20083;-75
2023/10/12 05:55:21;;;;;;;67.78;20.83;;;;;;;14.44;68.79;101677.38;5032213;28;20469;-75
2023/10/12 05:57:49;;;;;;;81.63;20.05;;;;;;;14.34;68.69;101643.09;5031810;28;20033;-75
2023/10/12 06:03:21;;;;;;;68.18;21.95;;;;;;;14.68;67.91;101659.13;4950919;29;20070;-74
2023/10/12 06:05:48;;;;;;;92.15;23.85;;;;;;;14.95;67.55;101672.22;4950723;29;20032;-75
2023/10/12 06:08:16;;;;;;;86.18;25.35;;;;;;;15.04;67.01;101676.91;4950844;29;20408;-75
2023/10/12 06:10:42;;;;;;;63.78;22.77;;;;;;;15.18;66.62;101679.31;4950574;29;20066;-75
2023/10/12 06:13:12;;;;;;;102.55;24.00;;;;;;;15.36;66.17;101681.47;4950972;29;20512;-74
2023/10/12 06:15:42;;;;;;;73.78;25.65;;;;;;;15.48;65.92;101675.88;4950624;29;20078;-75
2023/10/12 06:18:13;;;;;;;67.25;25.23;;;;;;;15.62;65.30;101677.44;4950877;29;20047;-75
2023/10/12 06:20:42;;;;;;;72.10;26.30;;;;;;;15.72;64.96;101667.50;4950934;29;20047;-75
2023/10/12 06:23:13;;;;;;;80.63;26.40;;;;;;;15.86;64.64;101669.88;4950633;29;20145;-76
2023/10/12 06:25:39;;;;;;;74.72;28.25;;;;;;;15.98;63.95;101679.66;4950482;29;20118;-75
2023/10/12 06:28:14;;;;;;;68.75;28.38;;;;;;;16.02;63.24;101659.44;4934253;29;20039;-76
2023/10/12 06:30:45;;;;;;;81.90;30.85;;;;;;;16.14;63.24;101680.06;4973092;28;20061;-75
2023/10/12 06:33:15;;;;;;;91.47;32.63;;;;;;;16.14;62.91;101673.75;4994318;28;20117;-75
2023/10/12 06:36:00;;;;;;;83.97;31.70;;;;;;;16.20;62.86;101673.22;5030819;28;20052;-76
2023/10/12 06:38:39;;;;;;;77.95;30.00;;;;;;;16.19;62.39;101677.78;5030777;28;20553;-75
2023/10/12 06:44:22;;;;;;;91.32;31.25;;;;;;;16.03;62.13;101601.41;5008502;28;20133;-76
2023/10/12 06:46:48;;;;;;;77.03;32.70;;;;;;;16.48;61.57;101671.63;4991808;28;20049;-76
2023/10/12 06:49:28;;;;;;;81.45;29.65;;;;;;;16.54;61.55;101673.78;5008454;28;20522;-76
2023/10/12 06:51:54;;;;;;;108.25;34.25;;;;;;;16.66;61.01;101670.88;5008270;28;20038;-75
2023/10/12 07:02:27;;;;;;;82.55;28.52;;;;;;;16.79;60.71;101648.84;5008080;28;20026;-75
2023/10/12 07:04:57;;;;;;;61.53;22.85;;;;;;;17.03;60.69;101659.34;5008025;28;20170;-75
2023/10/12 07:07:30;;;;;;;66.07;21.42;;;;;;;17.06;60.32;101646.34;5007752;28;20128;-75
2023/10/12 07:12:50;;;;;;;50.28;18.55;;;;;;;17.43;60.33;101669.09;5008318;28;20068;-76
2023/10/12 07:15:22;;;;;;;44.15;15.32;;;;;;;17.60;60.13;101661.25;5008184;28;20052;-75
2023/10/12 07:17:49;;;;;;;68.70;17.75;;;;;;;17.55;60.19;101639.91;4991025;28;20046;-75
2023/10/12 07:20:40;;;;;;;63.30;16.45;;;;;;;17.79;60.31;101655.78;5017119;28;20042;-75
2023/10/12 07:23:18;;;;;;;51.75;11.60;;;;;;;17.86;60.30;101654.16;5029741;28;20040;-75
2023/10/12 07:25:51;;;;;;;42.17;13.15;;;;;;;18.01;60.56;101655.41;5028504;28;20033;-75
2023/10/12 07:28:32;;;;;;;37.25;14.57;;;;;;;18.14;60.38;101655.09;5029920;28;20033;-75
2023/10/12 07:33:59;;;;;;;41.08;11.82;;;;;;;18.34;60.38;101652.16;5049561;28;20523;-75
2023/10/12 07:39:25;;;;;;;29.75;7.78;;;;;;;18.55;60.16;101651.09;5050142;28;20462;-74
2023/10/12 07:42:00;;;;;;;24.42;6.55;;;;;;;18.64;60.55;101651.03;5049485;28;20423;-75
2023/10/12 07:44:42;;;;;;;31.38;10.13;;;;;;;18.79;60.62;101645.91;5001637;28;20511;-75
2023/10/12 07:47:25;;;;;;;23.77;6.78;;;;;;;18.81;60.95;101643.88;5049115;28;20036;-75
2023/10/12 07:49:51;;;;;;;29.25;9.07;;;;;;;18.76;60.90;101613.53;5049461;28;20033;-75
2023/10/12 07:57:19;;;;;;;23.23;7.95;;;;;;;18.97;60.75;101625.00;5049117;28;20404;-75
2023/10/12 08:02:32;;;;;;;25.75;8.00;;;;;;;19.02;60.49;101618.06;5049533;28;20516;-74
2023/10/12 08:05:05;;;;;;;27.13;6.25;;;;;;;19.27;59.91;101646.41;5049324;28;20029;-76
2023/10/12 08:07:55;;;;;;;13.00;4.30;;;;;;;19.23;60.36;101642.31;5049145;28;20029;-74
2023/10/12 08:10:16;;;;;;;17.33;5.03;;;;;;;19.40;59.81;101644.19;5048838;28;20110;-74
2023/10/12 08:12:45;;;;;;;14.55;4.35;;;;;;;19.12;60.02;101626.16;5049228;28;20036;-76
2023/10/12 08:15:12;;;;;;;19.38;3.22;;;;;;;19.24;60.19;101640.41;5049348;28;20037;-76
2023/10/12 08:17:39;;;;;;;11.73;3.85;;;;;;;19.27;60.52;101638.25;5048598;28;20110;-76
2023/10/12 08:23:02;;;;;;;9.10;3.30;;;;;;;18.81;59.86;101567.56;5049167;28;20036;-76
2023/10/12 08:25:37;;;;;;;46.58;7.05;;;;;;;19.19;60.31;101631.84;5049315;28;20064;-75
2023/10/12 08:28:06;;;;;;;13.30;4.57;;;;;;;18.64;59.87;101552.94;5048925;28;20064;-76
2023/10/12 08:33:48;;;;;;;13.38;2.95;;;;;;;19.35;59.42;101638.34;4948286;29;20039;-75
2023/10/12 08:38:52;;;;;;;15.98;3.08;;;;;;;19.44;59.41;101639.28;4948372;29;20047;-75
2023/10/12 08:43:59;;;;;;;20.40;4.32;;;;;;;19.65;59.42;101630.75;4948594;29;20070;-74
2023/10/12 08:47:08;;;;;;;17.20;4.22;;;;;;;19.73;59.22;101625.34;4948449;29;20602;-75
2023/10/12 08:52:18;;;;;;;13.57;3.05;;;;;;;19.70;59.04;101617.47;4948767;29;20054;-75
2023/10/12 08:54:51;;;;;;;18.13;4.18;;;;;;;19.79;59.08;101630.16;4948367;29;20447;-75
2023/10/12 08:57:56;;;;;;;30.65;6.65;;;;;;;19.76;59.44;101635.94;4947875;29;20898;-75
2023/10/12 09:03:00;;;;;;;16.40;4.03;;;;;;;19.81;59.11;101618.09;4948264;29;20127;-76
2023/10/12 09:05:33;;;;;;;16.88;4.18;;;;;;;19.63;60.01;101624.59;4916474;29;20670;-76
2023/10/12 09:08:08;;;;;;;8.05;3.22;;;;;;;19.62;59.57;101601.03;4948491;29;20673;-74
2023/10/12 09:10:55;;;;;;;152.45;18.65;;;;;;;19.76;59.71;101616.81;5004233;28;20047;-75
2023/10/12 09:13:33;;;;;;;51.90;8.55;;;;;;;19.85;59.44;101616.72;5048763;28;20082;-76
2023/10/12 09:16:00;;;;;;;21.33;4.50;;;;;;;19.98;59.95;101613.56;5048550;28;20029;-76
2023/10/12 09:18:32;;;;;;;15.52;5.53;;;;;;;20.00;59.50;101616.97;5048039;28;20025;-75
2023/10/12 09:23:33;;;;;;;13.77;3.95;;;;;;;20.00;59.61;101615.09;5048354;28;20037;-75
2023/10/12 09:36:55;;;;;;;17.42;5.53;;;;;;;20.16;58.98;101587.03;5052007;28;20045;-75
2023/10/12 09:39:26;;;;;;;22.92;4.70;;;;;;;20.31;59.04;101565.44;5051834;28;20377;-75
2023/10/12 09:42:14;;;;;;;16.20;3.80;;;;;;;20.41;58.40;101583.41;5051586;28;20029;-76
2023/10/12 09:44:40;;;;;;;9.55;2.80;;;;;;;20.11;58.27;101564.81;5051309;28;20104;-75
2023/10/12 09:47:26;;;;;;;7.05;3.85;;;;;;;20.31;58.79;101571.75;5051955;28;20388;-75
2023/10/12 09:49:58;;;;;;;17.60;4.25;;;;;;;20.45;59.05;101546.56;5051407;28;20025;-75
2023/10/12 09:52:25;;;;;;;9.80;3.55;;;;;;;20.68;58.76;101573.25;5051620;28;20032;-75
2023/10/12 09:55:14;;;;;;;16.10;3.85;;;;;;;20.70;56.94;101565.75;5032553;28;20068;-75
2023/10/12 09:57:49;;;;;;;12.48;2.97;;;;;;;20.69;57.57;101558.56;5051485;28;20059;-76
2023/10/12 10:00:27;;;;;;;98.43;16.30;;;;;;;20.64;57.59;101557.16;5051716;28;20100;-75
2023/10/12 10:02:59;;;;;;;28.88;4.82;;;;;;;20.61;57.59;101552.03;5051228;28;20112;-75
2023/10/12 10:05:39;;;;;;;12.32;3.75;;;;;;;20.50;57.90;101544.16;5051381;28;20029;-76
2023/10/12 10:08:06;;;;;;;6.88;3.30;;;;;;;20.56;58.25;101550.84;5050700;28;20116;-75
2023/10/12 10:10:34;;;;;;;19.63;4.75;;;;;;;20.62;58.08;101536.50;5051308;28;20446;-76
2023/10/12 10:13:12;;;;;;;17.05;3.55;;;;;;;20.63;58.10;101536.34;5050821;28;20040;-76
2023/10/12 10:15:56;;;;;;;15.73;3.50;;;;;;;20.77;57.44;101539.41;5051135;28;20029;-76
2023/10/12 10:18:25;;;;;;;16.27;2.47;;;;;;;20.88;57.24;101515.34;5050940;28;20080;-75
2023/10/12 10:21:01;;;;;;;15.18;4.80;;;;;;;20.87;56.88;101510.03;5050884;28;20496;-75
2023/10/12 10:23:29;;;;;;;16.55;4.40;;;;;;;21.01;56.88;101521.16;5050550;28;20488;-74
2023/10/12 10:26:17;;;;;;;42.85;6.20;;;;;;;21.02;56.02;101527.47;5050988;28;20143;-75
2023/10/12 10:28:54;;;;;;;24.45;4.78;;;;;;;20.88;56.52;101515.34;5050343;28;20507;-75
2023/10/12 10:31:32;;;;;;;18.45;4.65;;;;;;;20.71;56.54;101523.69;5050963;28;20072;-74
2023/10/12 10:34:01;;;;;;;8.35;3.92;;;;;;;20.70;56.22;101522.00;5050926;28;20024;-75
2023/10/12 10:36:34;;;;;;;12.00;2.75;;;;;;;20.69;57.04;101514.81;5050905;28;20052;-75
2023/10/12 10:39:08;;;;;;;11.57;3.65;;;;;;;20.64;57.77;101513.44;5050395;28;20033;-76
2023/10/12 10:41:55;;;;;;;26.10;4.45;;;;;;;20.68;58.02;101505.75;5050801;28;20021;-75
2023/10/12 10:44:22;;;;;;;17.27;3.83;;;;;;;20.86;56.75;101506.44;5050473;28;20036;-75
2023/10/12 10:47:07;;;;;;;14.35;3.70;;;;;;;21.08;55.94;101496.72;5050557;28;20064;-75
2023/10/12 10:49:33;;;;;;;21.73;3.47;;;;;;;21.14;55.67;101485.09;5050633;28;20028;-75
2023/10/12 10:52:13;;;;;;;11.88;3.65;;;;;;;21.13;54.99;101488.84;5050276;28;20036;-74
2023/10/12 10:54:41;;;;;;;16.23;4.10;;;;;;;21.24;55.47;101483.06;5050209;28;20037;-75
2023/10/12 10:57:24;;;;;;;7.60;3.00;;;;;;;21.33;55.15;101476.53;5050352;28;20072;-74
2023/10/12 10:59:51;;;;;;;10.95;2.80;;;;;;;21.36;54.44;101484.41;5049902;28;20079;-75
2023/10/12 11:02:18;;;;;;;13.85;3.45;;;;;;;21.48;54.74;101474.78;5050524;28;20040;-75
2023/10/12 11:04:44;;;;;;;15.07;3.38;;;;;;;21.56;53.42;101482.13;5050014;28;20135;-77
2023/10/12 11:07:17;;;;;;;25.30;3.20;;;;;;;21.47;52.52;101466.75;5050051;28;20089;-75
2023/10/12 11:12:21;;;;;;;10.68;3.78;;;;;;;21.15;52.82;101446.66;5050303;28;20469;-75
2023/10/12 11:15:00;;;;;;;11.98;3.80;;;;;;;21.39;53.47;101462.16;5049576;28;20029;-75
2023/10/12 11:17:30;;;;;;;16.55;3.97;;;;;;;21.31;54.23;101456.72;5049596;28;20665;-76
2023/10/12 11:19:57;;;;;;;17.83;3.63;;;;;;;21.43;54.11;101459.94;4998155;28;20037;-75
2023/10/12 11:22:23;;;;;;;15.07;3.75;;;;;;;21.54;53.66;101452.19;5050050;28;20084;-75
2023/10/12 11:24:49;;;;;;;12.73;3.33;;;;;;;21.68;54.07;101447.84;5049995;28;20452;-76
2023/10/12 11:27:35;;;;;;;26.85;5.78;;;;;;;21.55;52.53;101447.56;5049554;28;20112;-74
2023/10/12 11:30:12;;;;;;;18.77;3.95;;;;;;;21.58;53.44;101448.09;5048862;28;20045;-74
2023/10/12 11:32:53;;;;;;;15.98;3.90;;;;;;;21.32;53.23;101432.91;5014002;28;20041;-74
2023/10/12 11:35:38;;;;;;;10.18;3.03;;;;;;;21.49;52.50;101443.66;5050093;28;20126;-74
2023/10/12 11:38:04;;;;;;;9.27;2.47;;;;;;;21.37;52.32;101412.22;5049211;28;20496;-75
2023/10/12 11:40:32;;;;;;;21.35;4.10;;;;;;;21.53;52.19;101420.34;5049684;28;20021;-74
2023/10/12 11:42:57;;;;;;;12.63;3.25;;;;;;;21.70;52.15;101426.63;5049313;28;20032;-76
2023/10/12 11:45:32;;;;;;;23.60;3.75;;;;;;;21.85;50.96;101416.63;5049458;28;20382;-74
2023/10/12 11:48:16;;;;;;;13.90;3.03;;;;;;;22.04;50.26;101423.59;5049393;28;20025;-76
2023/10/12 11:50:45;;;;;;;12.68;3.25;;;;;;;22.20;49.51;101426.22;5048284;28;20025;-75
2023/10/12 11:53:12;;;;;;;22.40;3.47;;;;;;;22.26;49.33;101425.53;5049357;28;20025;-75
2023/10/12 11:55:40;;;;;;;13.10;3.28;;;;;;;22.29;49.07;101421.56;5049037;28;20374;-75
2023/10/12 11:58:07;;;;;;;16.77;2.88;;;;;;;22.04;49.17;101397.06;5049378;28;20446;-75
2023/10/12 12:00:44;;;;;;;8.05;3.20;;;;;;;21.97;49.14;101414.38;5049244;28;20021;-74
2023/10/12 12:03:10;;;;;;;24.42;4.07;;;;;;;21.63;50.17;101423.75;5048659;28;20029;-76
2023/10/12 12:05:36;;;;;;;20.73;3.25;;;;;;;21.80;49.67;101412.75;5049112;28;20028;-76
2023/10/12 12:08:06;;;;;;;21.67;3.10;;;;;;;21.69;49.98;101412.09;5048946;28;20032;-75
2023/10/12 12:13:15;;;;;;;9.68;2.58;;;;;;;21.78;49.40;101403.81;5049392;28;20465;-75
2023/10/12 12:15:44;;;;;;;7.32;2.45;;;;;;;21.83;49.22;101410.50;5048707;28;20074;-76
2023/10/12 12:18:17;;;;;;;15.00;2.90;;;;;;;21.65;49.34;101405.25;4997217;28;20120;-74
2023/10/12 12:20:44;;;;;;;10.48;2.78;;;;;;;21.55;49.50;101388.19;5013192;28;20041;-76
2023/10/12 12:23:11;;;;;;;20.75;3.42;;;;;;;21.56;49.99;101389.88;5048942;28;20128;-74
2023/10/12 12:25:39;;;;;;;19.17;3.45;;;;;;;21.61;50.19;101392.97;5048522;28;20029;-75
2023/10/12 12:28:21;;;;;;;12.23;2.53;;;;;;;21.61;49.78;101382.03;5048661;28;20492;-75
2023/10/12 12:30:51;;;;;;;18.87;3.43;;;;;;;21.63;49.29;101382.69;5048840;28;20154;-74
2023/10/12 12:33:17;;;;;;;12.98;2.67;;;;;;;21.70;49.40;101385.56;5048765;28;20288;-75
2023/10/12 12:36:10;;;;;;;9.25;2.80;;;;;;;21.74;49.51;101383.31;5048799;28;20063;-75
2023/10/12 12:41:23;;;;;;;11.13;2.88;;;;;;;21.67;50.14;101381.31;5048982;28;20116;-75
2023/10/12 12:43:50;;;;;;;21.55;4.43;;;;;;;21.54;50.72;101370.06;5048934;28;20033;-74
2023/10/12 12:46:17;;;;;;;4.70;2.40;;;;;;;21.27;51.37;101345.03;5048949;28;20029;-75
2023/10/12 12:48:45;;;;;;;24.75;3.42;;;;;;;21.42;51.35;101379.69;5048990;28;20467;-74
2023/10/12 12:51:17;;;;;;;15.18;3.58;;;;;;;21.48;51.36;101365.28;5048265;28;20039;-75
2023/10/12 12:53:46;;;;;;;12.43;2.80;;;;;;;21.44;51.14;101366.66;5048670;28;20024;-75
2023/10/12 12:56:19;;;;;;;8.63;2.78;;;;;;;21.41;51.39;101372.50;5048846;28;20045;-74
2023/10/12 12:58:46;;;;;;;8.25;2.97;;;;;;;21.16;51.45;101335.31;5048578;28;20093;-77
2023/10/12 13:01:17;;;;;;;18.15;2.30;;;;;;;21.12;52.20;101353.13;5048385;28;20486;-75
2023/10/12 13:03:45;;;;;;;15.88;3.00;;;;;;;21.08;52.07;101362.66;5051232;28;20025;-75
2023/10/12 13:06:14;;;;;;;9.50;3.35;;;;;;;21.04;52.14;101356.69;5052585;28;20032;-75
2023/10/12 13:08:39;;;;;;;7.85;3.22;;;;;;;21.12;52.07;101358.59;5052462;28;20090;-75
2023/10/12 13:11:05;;;;;;;11.27;2.28;;;;;;;21.20;51.87;101355.81;5052488;28;20515;-75
2023/10/12 13:13:33;;;;;;;12.93;2.65;;;;;;;21.26;51.38;101354.25;5052282;28;20021;-75
2023/10/12 13:16:06;;;;;;;19.55;3.78;;;;;;;21.01;51.54;101323.34;5052108;28;20112;-75
2023/10/12 13:18:32;;;;;;;9.50;2.72;;;;;;;21.05;51.69;101346.59;5052203;28;20049;-76
2023/10/12 13:20:59;;;;;;;36.00;4.53;;;;;;;21.13;51.84;101344.72;5052270;28;20085;-76
2023/10/12 13:23:25;;;;;;;54.22;8.23;;;;;;;21.24;51.44;101343.50;5052329;28;20029;-75
2023/10/12 13:25:50;;;;;;;28.80;5.03;;;;;;;21.13;51.32;101327.44;5051804;28;20500;-75
2023/10/12 13:28:16;;;;;;;23.00;4.13;;;;;;;21.15;51.70;101336.34;5051847;28;20574;-75
2023/10/12 13:30:43;;;;;;;18.88;2.80;;;;;;;21.03;51.44;101326.78;5051106;28;20045;-76
2023/10/12 13:33:11;;;;;;;11.40;3.22;;;;;;;20.85;51.76;101320.69;5051934;28;20041;-75
2023/10/12 13:38:09;;;;;;;41.78;5.03;;;;;;;20.84;51.95;101318.97;5051697;28;20032;-75
2023/10/12 13:40:42;;;;;;;6.38;2.28;;;;;;;20.73;52.18;101319.34;5051322;28;20028;-75
2023/10/12 13:43:14;;;;;;;30.98;5.28;;;;;;;20.75;52.40;101312.66;5051788;28;20044;-76
2023/10/12 13:45:50;;;;;;;23.70;4.25;;;;;;;20.73;52.36;101303.78;5051461;28;20033;-75
2023/10/12 13:48:25;;;;;;;19.65;2.95;;;;;;;20.63;52.45;101287.56;5051994;28;20028;-75
2023/10/12 13:50:53;;;;;;;21.35;2.75;;;;;;;20.61;52.38;101316.09;5051576;28;20037;-74
2023/10/12 13:53:24;;;;;;;36.28;4.75;;;;;;;20.45;52.89;101302.47;5051449;28;20028;-75
2023/10/12 13:55:50;;;;;;;5.80;2.55;;;;;;;20.32;53.18;101300.25;5050805;28;20465;-74